createdAt,value
2022-09-22T00:01:14.381Z,7.58
2022-09-22T00:03:49.348Z,7.64
2022-09-22T00:06:22.040Z,7.66
2022-09-22T00:08:54.045Z,7.54
2022-09-22T00:11:29.325Z,7.52
2022-09-22T00:14:08.403Z,7.52
2022-09-22T00:16:47.720Z,7.32
2022-09-22T00:19:17.408Z,7.29
2022-09-22T00:21:44.429Z,7.38
2022-09-22T00:24:11.375Z,7.42
2022-09-22T00:26:38.477Z,7.37
2022-09-22T00:29:09.528Z,7.38
2022-09-22T00:31:38.617Z,7.23
2022-09-22T00:34:05.999Z,7.26
2022-09-22T00:36:33.095Z,7.35
2022-09-22T00:39:00.129Z,7.26
2022-09-22T00:41:28.271Z,7.31
2022-09-22T00:44:40.710Z,7.20
2022-09-22T00:47:45.895Z,7.14
2022-09-22T00:50:22.383Z,7.11
2022-09-22T00:52:59.942Z,7.10
2022-09-22T00:55:43.267Z,7.08
2022-09-22T00:58:14.409Z,7.12
2022-09-22T01:00:41.217Z,7.02
2022-09-22T01:03:11.772Z,7.01
2022-09-22T01:05:39.578Z,6.96
2022-09-22T01:08:06.586Z,6.87
2022-09-22T01:10:33.618Z,6.98
2022-09-22T01:13:19.171Z,6.77
2022-09-22T01:16:18.269Z,6.85
2022-09-22T01:19:29.769Z,6.78
2022-09-22T01:22:29.422Z,6.82
2022-09-22T01:24:59.389Z,6.79
2022-09-22T01:28:01.540Z,6.76
2022-09-22T01:30:44.510Z,6.81
2022-09-22T01:33:48.345Z,6.75
2022-09-22T01:36:23.292Z,6.86
2022-09-22T01:39:17.497Z,6.85
2022-09-22T01:42:16.139Z,6.85
2022-09-22T01:44:50.350Z,6.75
2022-09-22T01:47:44.899Z,6.74
2022-09-22T01:50:20.788Z,6.81
2022-09-22T01:52:48.146Z,6.61
2022-09-22T01:55:27.640Z,6.43
2022-09-22T01:58:22.887Z,6.64
2022-09-22T02:01:01.005Z,6.64
2022-09-22T02:03:38.459Z,6.69
2022-09-22T02:06:23.374Z,6.68
2022-09-22T02:09:22.075Z,6.51
2022-09-22T02:11:48.973Z,6.58
2022-09-22T02:14:16.243Z,6.37
2022-09-22T02:16:43.011Z,6.22
2022-09-22T02:19:21.563Z,6.40
2022-09-22T02:21:48.784Z,6.36
2022-09-22T02:24:38.050Z,6.45
2022-09-22T02:27:08.087Z,6.60
2022-09-22T02:29:38.071Z,6.54
2022-09-22T02:32:08.014Z,6.53
2022-09-22T02:34:34.700Z,6.48
2022-09-22T02:37:21.996Z,6.52
2022-09-22T02:39:56.984Z,6.49
2022-09-22T02:42:30.857Z,6.44
2022-09-22T02:45:15.845Z,6.34
2022-09-22T02:47:48.126Z,6.42
2022-09-22T02:50:17.817Z,6.47
2022-09-22T02:52:44.582Z,6.38
2022-09-22T02:55:12.642Z,6.38
2022-09-22T02:57:39.334Z,6.34
2022-09-22T03:00:06.949Z,6.39
2022-09-22T03:02:33.724Z,6.46
2022-09-22T03:05:00.477Z,6.48
2022-09-22T03:07:27.394Z,6.47
2022-09-22T03:09:54.160Z,6.51
2022-09-22T03:12:20.891Z,6.56
2022-09-22T03:14:47.764Z,6.47
2022-09-22T03:17:14.732Z,6.37
2022-09-22T03:19:41.386Z,6.35
2022-09-22T03:22:08.339Z,6.47
2022-09-22T03:24:35.134Z,6.41
2022-09-22T03:27:01.843Z,6.49
2022-09-22T03:29:28.628Z,6.42
2022-09-22T03:31:55.243Z,6.42
2022-09-22T03:34:22.060Z,6.45
2022-09-22T03:36:48.817Z,6.20
2022-09-22T03:39:15.580Z,6.36
2022-09-22T03:41:42.408Z,6.31
2022-09-22T03:44:09.399Z,6.40
2022-09-22T03:46:36.267Z,6.40
2022-09-22T03:49:04.083Z,6.40
2022-09-22T03:51:31.219Z,6.23
2022-09-22T03:53:58.037Z,6.28
2022-09-22T03:56:24.876Z,6.28
2022-09-22T03:58:51.552Z,6.27
2022-09-22T04:01:18.534Z,6.27
2022-09-22T04:03:45.445Z,6.33
2022-09-22T04:06:12.211Z,6.38
2022-09-22T04:08:39.117Z,6.38
2022-09-22T04:11:06.880Z,6.26
2022-09-22T04:13:36.756Z,6.20
2022-09-22T04:16:05.527Z,6.19
2022-09-22T04:18:32.750Z,6.29
2022-09-22T04:20:59.986Z,6.39
2022-09-22T04:23:27.392Z,6.36
2022-09-22T04:25:54.376Z,6.49
2022-09-22T04:28:21.571Z,6.44
2022-09-22T04:30:48.360Z,6.38
2022-09-22T04:33:15.268Z,6.39
2022-09-22T04:35:42.008Z,6.40
2022-09-22T04:38:10.405Z,6.27
2022-09-22T04:40:37.875Z,6.34
2022-09-22T04:43:04.699Z,6.32
2022-09-22T04:45:33.972Z,6.05
2022-09-22T04:48:02.982Z,5.96
2022-09-22T04:50:29.800Z,6.14
2022-09-22T04:52:57.316Z,6.11
2022-09-22T04:55:25.187Z,6.18
2022-09-22T04:57:53.912Z,6.19
2022-09-22T05:00:22.090Z,6.22
2022-09-22T05:02:49.037Z,6.31
2022-09-22T05:05:16.130Z,6.16
2022-09-22T05:07:45.763Z,6.23
2022-09-22T05:10:13.699Z,6.19
2022-09-22T05:12:41.486Z,6.28
2022-09-22T05:15:10.054Z,6.16
2022-09-22T05:17:36.901Z,6.24
2022-09-22T05:20:07.463Z,6.18
2022-09-22T05:22:39.125Z,6.31
2022-09-22T05:25:08.740Z,6.31
2022-09-22T05:27:35.707Z,6.34
2022-09-22T05:30:02.704Z,6.50
2022-09-22T05:32:29.468Z,6.38
2022-09-22T05:34:56.100Z,6.28
2022-09-22T05:37:22.872Z,6.31
2022-09-22T05:39:49.652Z,6.36
2022-09-22T05:42:16.315Z,6.46
2022-09-22T05:44:42.944Z,6.49
2022-09-22T05:47:09.560Z,6.47
2022-09-22T05:49:36.373Z,6.51
2022-09-22T05:52:03.478Z,6.50
2022-09-22T05:54:30.116Z,6.48
2022-09-22T05:56:56.967Z,6.40
2022-09-22T05:59:23.634Z,6.40
2022-09-22T06:01:50.412Z,6.38
2022-09-22T06:04:17.350Z,6.45
2022-09-22T06:06:44.030Z,6.42
2022-09-22T06:09:10.759Z,6.35
2022-09-22T06:11:37.516Z,6.39
2022-09-22T06:14:04.259Z,6.42
2022-09-22T06:16:32.003Z,6.49
2022-09-22T06:18:59.078Z,6.38
2022-09-22T06:21:26.161Z,6.54
2022-09-22T06:23:52.994Z,6.52
2022-09-22T06:26:19.785Z,6.43
2022-09-22T06:28:47.350Z,6.51
2022-09-22T06:31:15.432Z,6.53
2022-09-22T06:33:48.413Z,6.50
2022-09-22T06:36:31.416Z,6.49
2022-09-22T06:38:59.041Z,6.31
2022-09-22T06:41:26.791Z,6.43
2022-09-22T06:43:56.220Z,6.31
2022-09-22T06:46:24.865Z,6.34
2022-09-22T06:48:54.316Z,6.49
2022-09-22T06:51:21.151Z,6.55
2022-09-22T06:53:51.820Z,6.50
2022-09-22T06:56:20.511Z,6.62
2022-09-22T06:59:08.958Z,6.50
2022-09-22T07:01:34.237Z,6.56
2022-09-22T07:04:01.424Z,6.45
2022-09-22T07:06:28.787Z,6.48
2022-09-22T07:08:55.437Z,6.46
2022-09-22T07:11:23.852Z,6.44
2022-09-22T07:13:53.621Z,6.59
2022-09-22T07:16:22.598Z,6.49
2022-09-22T07:18:51.550Z,6.75
2022-09-22T07:21:24.275Z,6.72
2022-09-22T07:23:53.414Z,6.64
2022-09-22T07:26:24.038Z,6.80
2022-09-22T07:28:53.507Z,6.78
2022-09-22T07:31:23.960Z,6.56
2022-09-22T07:33:54.952Z,6.69
2022-09-22T07:36:23.398Z,6.81
2022-09-22T07:38:51.882Z,6.97
2022-09-22T07:41:24.444Z,6.99
2022-09-22T07:43:53.508Z,6.94
2022-09-22T07:46:20.645Z,7.17
2022-09-22T07:48:48.095Z,7.09
2022-09-22T07:51:19.443Z,7.00
2022-09-22T07:54:07.320Z,6.97
2022-09-22T07:56:40.392Z,7.09
2022-09-22T07:59:10.939Z,7.02
2022-09-22T08:01:47.790Z,7.13
2022-09-22T08:04:16.934Z,7.36
2022-09-22T08:06:44.457Z,7.41
2022-09-22T08:09:12.028Z,7.59
2022-09-22T08:11:39.163Z,7.66
2022-09-22T08:14:08.710Z,7.70
2022-09-22T08:16:39.171Z,7.55
2022-09-22T08:19:12.721Z,7.78
2022-09-22T08:21:48.370Z,7.89
2022-09-22T08:24:21.600Z,8.06
2022-09-22T08:26:50.697Z,8.11
2022-09-22T08:29:17.492Z,8.18
2022-09-22T08:31:47.782Z,8.32
2022-09-22T08:34:16.699Z,8.36
2022-09-22T08:36:47.502Z,8.51
2022-09-22T08:39:18.548Z,8.52
2022-09-22T08:42:19.388Z,8.62
2022-09-22T08:44:54.474Z,8.68
2022-09-22T08:47:45.434Z,8.83
2022-09-22T08:50:51.763Z,9.02
2022-09-22T08:53:23.100Z,9.23
2022-09-22T08:56:03.243Z,9.51
2022-09-22T08:58:45.435Z,9.73
2022-09-22T09:01:20.670Z,9.97
2022-09-22T09:04:22.328Z,10.19
2022-09-22T09:07:08.243Z,10.49
2022-09-22T09:10:05.318Z,10.73
2022-09-22T09:12:58.335Z,10.98
2022-09-22T09:15:37.674Z,11.24
2022-09-22T09:18:13.699Z,11.38
2022-09-22T09:20:45.154Z,11.43
2022-09-22T09:26:18.884Z,11.72
2022-09-22T09:28:50.537Z,11.95
2022-09-22T09:31:21.454Z,12.03
2022-09-22T09:33:59.518Z,12.19
2022-09-22T09:36:31.395Z,12.43
2022-09-22T09:38:59.051Z,12.63
2022-09-22T09:41:34.395Z,12.79
2022-09-22T09:44:02.080Z,12.96
2022-09-22T09:46:50.936Z,13.04
2022-09-22T09:49:20.058Z,13.26
2022-09-22T09:51:50.728Z,13.52
2022-09-22T09:54:18.995Z,13.76
2022-09-22T09:57:21.398Z,13.95
2022-09-22T10:00:32.661Z,14.16
2022-09-22T10:03:25.540Z,14.29
2022-09-22T10:06:04.733Z,14.23
2022-09-22T10:08:36.772Z,14.50
2022-09-22T10:11:04.627Z,14.57
2022-09-22T10:13:34.039Z,14.79
2022-09-22T10:16:24.615Z,15.06
2022-09-22T10:19:17.420Z,15.06
2022-09-22T10:21:44.059Z,15.20
2022-09-22T10:24:29.930Z,15.47
2022-09-22T10:26:57.480Z,15.61
2022-09-22T10:29:25.292Z,15.67
2022-09-22T10:32:16.574Z,15.80
2022-09-22T10:34:51.338Z,15.89
2022-09-22T10:37:21.209Z,15.98
2022-09-22T10:39:50.700Z,16.09
2022-09-22T10:42:35.818Z,16.02
2022-09-22T10:45:09.114Z,16.12
2022-09-22T10:47:51.696Z,16.38
2022-09-22T10:50:55.807Z,16.59
2022-09-22T10:53:47.110Z,16.42
2022-09-22T10:56:26.030Z,16.56
2022-09-22T10:59:05.960Z,16.62
2022-09-22T11:01:48.979Z,16.53
2022-09-22T11:04:43.107Z,16.69
2022-09-22T11:07:59.337Z,16.63
2022-09-22T11:11:17.074Z,16.75
2022-09-22T11:13:58.567Z,16.70
2022-09-22T11:16:37.805Z,17.03
2022-09-22T11:19:33.007Z,17.15
2022-09-22T11:22:34.707Z,17.27
2022-09-22T11:25:33.710Z,17.52
2022-09-22T11:28:38.991Z,17.32
2022-09-22T11:31:05.707Z,17.28
2022-09-22T11:34:06.437Z,17.38
2022-09-22T11:36:51.452Z,17.36
2022-09-22T11:39:21.227Z,17.64
2022-09-22T11:42:02.214Z,17.87
2022-09-22T11:44:33.635Z,18.06
2022-09-22T11:47:29.855Z,18.02
2022-09-22T11:50:26.920Z,17.99
2022-09-22T11:53:05.028Z,18.07
2022-09-22T11:56:06.698Z,18.06
2022-09-22T11:58:34.386Z,17.96
2022-09-22T12:01:17.850Z,18.04
2022-09-22T12:03:52.623Z,17.98
2022-09-22T12:06:26.691Z,18.00
2022-09-22T12:09:06.159Z,17.91
2022-09-22T12:11:36.007Z,17.97
2022-09-22T12:14:03.832Z,18.15
2022-09-22T12:16:43.822Z,18.14
2022-09-22T12:20:08.459Z,17.95
2022-09-22T12:22:58.390Z,17.73
2022-09-22T12:25:48.620Z,17.70
2022-09-22T12:28:18.674Z,17.64
2022-09-22T12:30:56.926Z,17.25
2022-09-22T12:33:23.843Z,17.21
2022-09-22T12:35:55.218Z,17.20
2022-09-22T12:38:22.923Z,17.20
2022-09-22T12:40:51.984Z,17.35
2022-09-22T12:43:21.905Z,17.54
2022-09-22T12:45:49.569Z,17.64
2022-09-22T12:48:35.123Z,17.89
2022-09-22T12:51:29.423Z,18.08
2022-09-22T12:54:33.692Z,18.33
2022-09-22T12:57:21.629Z,18.36
2022-09-22T13:00:11.115Z,18.60
2022-09-22T13:02:43.312Z,18.76
2022-09-22T13:05:25.035Z,18.91
2022-09-22T13:08:01.854Z,18.72
2022-09-22T13:10:28.858Z,19.01
2022-09-22T13:13:01.833Z,19.10
2022-09-22T13:15:31.405Z,19.24
2022-09-22T13:17:59.069Z,19.37
2022-09-22T13:20:32.012Z,19.41
2022-09-22T13:23:06.057Z,19.52
2022-09-22T13:25:33.004Z,19.59
2022-09-22T13:28:11.374Z,19.75
2022-09-22T13:30:40.466Z,19.92
2022-09-22T13:33:18.614Z,19.83
2022-09-22T13:35:45.765Z,19.59
2022-09-22T13:38:13.837Z,19.14
2022-09-22T13:40:46.232Z,19.00
2022-09-22T13:43:25.805Z,19.07
2022-09-22T13:45:52.843Z,18.96
2022-09-22T13:48:20.463Z,19.09
2022-09-22T13:50:56.975Z,19.00
2022-09-22T13:53:23.847Z,19.06
2022-09-22T13:55:52.094Z,19.17
2022-09-22T13:58:24.441Z,18.87
2022-09-22T14:01:13.046Z,18.86
2022-09-22T14:03:40.422Z,18.74
2022-09-22T14:06:15.803Z,18.70
2022-09-22T14:08:44.232Z,18.19
2022-09-22T14:11:18.631Z,18.07
2022-09-22T14:13:55.090Z,17.82
2022-09-22T14:16:39.291Z,17.77
2022-09-22T14:19:14.742Z,17.79
2022-09-22T14:21:58.570Z,17.69
2022-09-22T14:24:26.573Z,17.77
2022-09-22T14:26:57.988Z,17.67
2022-09-22T14:29:30.427Z,17.69
2022-09-22T14:32:11.870Z,17.89
2022-09-22T14:34:39.609Z,17.98
2022-09-22T14:37:24.976Z,18.11
2022-09-22T14:39:53.716Z,18.26
2022-09-22T14:42:28.579Z,18.28
2022-09-22T14:45:21.153Z,18.15
2022-09-22T14:48:15.673Z,18.18
2022-09-22T14:50:45.658Z,18.32
2022-09-22T14:53:29.240Z,18.47
2022-09-22T14:56:07.619Z,18.60
2022-09-22T14:58:40.430Z,18.53
2022-09-22T15:01:52.581Z,18.55
2022-09-22T15:04:28.351Z,18.53
2022-09-22T15:06:56.944Z,18.43
2022-09-22T15:09:37.862Z,18.27
2022-09-22T15:12:05.149Z,17.99
2022-09-22T15:14:50.449Z,18.17
2022-09-22T15:17:55.886Z,18.17
2022-09-22T15:20:26.676Z,18.06
2022-09-22T15:22:56.228Z,18.04
2022-09-22T15:25:23.519Z,18.06
2022-09-22T15:27:56.169Z,18.07
2022-09-22T15:30:22.961Z,18.13
2022-09-22T15:32:49.843Z,18.07
2022-09-22T15:35:17.956Z,18.07
2022-09-22T15:37:50.325Z,17.98
2022-09-22T15:40:21.430Z,17.80
2022-09-22T15:43:09.090Z,17.74
2022-09-22T15:45:37.464Z,17.77
2022-09-22T15:48:04.375Z,17.81
2022-09-22T15:50:31.135Z,17.82
2022-09-22T15:52:57.885Z,17.82
2022-09-22T15:55:24.679Z,17.80
2022-09-22T15:57:55.021Z,17.82
2022-09-22T16:00:27.432Z,17.84
2022-09-22T16:02:54.820Z,17.83
2022-09-22T16:05:21.679Z,17.72
2022-09-22T16:07:52.652Z,17.63
2022-09-22T16:10:23.809Z,17.54
2022-09-22T16:12:50.833Z,17.52
2022-09-22T16:15:17.815Z,17.41
2022-09-22T16:17:45.925Z,17.31
2022-09-22T16:20:17.368Z,17.34
2022-09-22T16:22:45.606Z,17.32
2022-09-22T16:25:12.932Z,17.18
2022-09-22T16:27:39.996Z,17.09
2022-09-22T16:30:07.739Z,17.11
2022-09-22T16:32:36.411Z,17.03
2022-09-22T16:35:04.006Z,17.00
2022-09-22T16:37:30.825Z,17.03
2022-09-22T16:39:57.500Z,16.95
2022-09-22T16:42:24.186Z,16.91
2022-09-22T16:44:51.069Z,16.97
2022-09-22T16:47:22.967Z,16.87
2022-09-22T16:49:51.788Z,16.83
2022-09-22T16:52:19.467Z,16.70
2022-09-22T16:54:46.427Z,16.66
2022-09-22T16:57:13.501Z,16.55
2022-09-22T16:59:40.272Z,16.55
2022-09-22T17:02:07.320Z,16.50
2022-09-22T17:04:34.065Z,16.39
2022-09-22T17:07:00.797Z,16.34
2022-09-22T17:09:27.809Z,16.26
2022-09-22T17:11:54.624Z,16.23
2022-09-22T17:14:22.304Z,16.06
2022-09-22T17:16:52.394Z,15.86
2022-09-22T17:19:24.349Z,15.74
2022-09-22T17:21:53.014Z,15.51
2022-09-22T17:24:19.987Z,15.45
2022-09-22T17:26:49.150Z,15.40
2022-09-22T17:29:25.366Z,15.43
2022-09-22T17:31:57.769Z,15.15
2022-09-22T17:34:26.051Z,15.08
2022-09-22T17:36:55.656Z,14.86
2022-09-22T17:39:24.209Z,14.75
2022-09-22T17:41:51.195Z,14.67
2022-09-22T17:44:21.115Z,14.52
2022-09-22T17:47:07.958Z,14.58
2022-09-22T17:49:53.245Z,14.44
2022-09-22T17:52:52.258Z,14.37
2022-09-22T17:55:25.674Z,14.28
2022-09-22T17:57:53.019Z,14.12
2022-09-22T18:00:21.397Z,13.94
2022-09-22T18:02:49.689Z,13.70
2022-09-22T18:05:19.960Z,13.67
2022-09-22T18:07:49.483Z,13.61
2022-09-22T18:10:19.348Z,13.52
2022-09-22T18:12:45.977Z,13.55
2022-09-22T18:15:13.566Z,13.39
2022-09-22T18:17:42.244Z,13.32
2022-09-22T18:20:14.481Z,13.35
2022-09-22T18:22:42.042Z,13.16
2022-09-22T18:25:11.078Z,12.97
2022-09-22T18:27:38.482Z,12.97
2022-09-22T18:30:05.788Z,12.88
2022-09-22T18:32:33.487Z,12.95
2022-09-22T18:35:00.211Z,12.83
2022-09-22T18:37:27.177Z,12.62
2022-09-22T18:39:54.394Z,12.61
2022-09-22T18:42:24.431Z,12.54
2022-09-22T18:44:52.178Z,12.47
2022-09-22T18:47:21.315Z,12.39
2022-09-22T18:49:51.972Z,12.44
2022-09-22T18:52:29.068Z,12.57
2022-09-22T18:54:56.231Z,12.56
2022-09-22T18:57:25.888Z,12.37
2022-09-22T18:59:54.194Z,12.39
2022-09-22T19:02:23.065Z,12.32
2022-09-22T19:04:51.851Z,12.32
2022-09-22T19:07:41.591Z,12.23
2022-09-22T19:10:13.834Z,12.27
2022-09-22T19:12:40.846Z,12.20
2022-09-22T19:15:13.030Z,12.02
2022-09-22T19:17:42.866Z,12.09
2022-09-22T19:20:12.515Z,12.20
2022-09-22T19:22:39.925Z,12.26
2022-09-22T19:25:07.238Z,12.35
2022-09-22T19:27:35.013Z,12.28
2022-09-22T19:30:02.298Z,12.31
2022-09-22T19:32:28.913Z,12.29
2022-09-22T19:34:56.629Z,12.07
2022-09-22T19:37:25.055Z,12.23
2022-09-22T19:39:51.746Z,12.32
2022-09-22T19:42:19.171Z,12.14
2022-09-22T19:44:45.798Z,11.95
2022-09-22T19:47:12.603Z,11.85
2022-09-22T19:49:41.005Z,11.66
2022-09-22T19:52:09.576Z,11.49
2022-09-22T19:54:36.351Z,11.61
2022-09-22T19:57:03.148Z,11.64
2022-09-22T19:59:29.897Z,11.74
2022-09-22T20:01:56.723Z,11.51
2022-09-22T20:04:23.756Z,11.52
2022-09-22T20:06:50.639Z,11.46
2022-09-22T20:09:17.603Z,11.29
2022-09-22T20:11:47.007Z,11.43
2022-09-22T20:14:20.628Z,11.55
2022-09-22T20:17:08.289Z,11.47
2022-09-22T20:19:38.587Z,11.50
2022-09-22T20:22:27.772Z,11.36
2022-09-22T20:24:57.800Z,11.42
2022-09-22T20:27:26.615Z,11.35
2022-09-22T20:29:57.104Z,11.26
2022-09-22T20:32:25.257Z,11.31
2022-09-22T20:34:54.274Z,11.21
2022-09-22T20:37:23.140Z,11.08
2022-09-22T20:39:50.405Z,11.02
2022-09-22T20:42:17.709Z,11.10
2022-09-22T20:44:44.491Z,11.08
2022-09-22T20:47:15.033Z,11.11
2022-09-22T20:49:42.338Z,11.07
2022-09-22T20:52:14.682Z,10.93
2022-09-22T20:54:42.270Z,10.85
2022-09-22T20:57:09.522Z,10.89
2022-09-22T20:59:36.496Z,10.69
2022-09-22T21:02:03.252Z,10.66
2022-09-22T21:04:30.688Z,10.55
2022-09-22T21:06:58.303Z,10.56
2022-09-22T21:09:43.798Z,10.59
2022-09-22T21:12:10.858Z,10.45
2022-09-22T21:14:37.554Z,10.48
2022-09-22T21:17:06.709Z,10.40
2022-09-22T21:19:34.900Z,10.40
2022-09-22T21:22:01.593Z,10.31
2022-09-22T21:24:28.849Z,10.22
2022-09-22T21:27:01.928Z,10.20
2022-09-22T21:29:29.935Z,10.26
2022-09-22T21:31:57.993Z,9.86
2022-09-22T21:34:25.037Z,9.91
2022-09-22T21:36:51.703Z,9.94
2022-09-22T21:39:18.505Z,9.98
2022-09-22T21:41:45.182Z,9.98
2022-09-22T21:44:11.842Z,9.93
2022-09-22T21:46:41.082Z,9.77
2022-09-22T21:49:08.825Z,9.70
2022-09-22T21:51:41.530Z,9.74
2022-09-22T21:54:13.028Z,9.75
2022-09-22T21:56:40.088Z,9.89
2022-09-22T21:59:06.894Z,9.70
2022-09-22T22:01:36.097Z,9.74
2022-09-22T22:04:03.588Z,9.64
2022-09-22T22:06:32.754Z,9.61
2022-09-22T22:09:04.327Z,9.56
2022-09-22T22:11:39.634Z,9.54
2022-09-22T22:14:08.682Z,9.43
2022-09-22T22:16:40.418Z,9.32
2022-09-22T22:19:09.119Z,9.42
2022-09-22T22:21:36.619Z,9.29
2022-09-22T22:24:24.783Z,9.38
2022-09-22T22:26:57.351Z,9.21
2022-09-22T22:29:27.519Z,9.13
2022-09-22T22:31:54.543Z,9.05
2022-09-22T22:34:25.752Z,8.93
2022-09-22T22:36:53.091Z,8.98
2022-09-22T22:39:20.054Z,9.04
2022-09-22T22:41:48.876Z,9.02
2022-09-22T22:44:18.405Z,8.82
2022-09-22T22:46:46.241Z,8.90
2022-09-22T22:49:13.250Z,8.92
2022-09-22T22:51:43.455Z,8.96
2022-09-22T22:54:11.980Z,8.98
2022-09-22T22:56:42.048Z,8.95
2022-09-22T22:59:09.869Z,8.85
2022-09-22T23:01:36.950Z,8.78
2022-09-22T23:04:06.290Z,8.84
2022-09-22T23:06:42.261Z,8.89
2022-09-22T23:09:12.185Z,8.84
2022-09-22T23:11:40.329Z,8.78
2022-09-22T23:14:09.543Z,8.80
2022-09-22T23:16:41.906Z,8.82
2022-09-22T23:19:11.964Z,8.71
2022-09-22T23:21:38.748Z,8.66
2022-09-22T23:24:06.142Z,8.65
2022-09-22T23:26:33.257Z,8.53
2022-09-22T23:29:00.199Z,8.55
2022-09-22T23:31:28.013Z,8.43
2022-09-22T23:33:54.804Z,8.38
2022-09-22T23:36:24.428Z,8.36
2022-09-22T23:38:55.513Z,8.37
2022-09-22T23:41:22.476Z,8.29
2022-09-22T23:43:51.291Z,8.47
2022-09-22T23:46:18.335Z,8.43
2022-09-22T23:48:45.083Z,8.14
2022-09-22T23:51:11.732Z,8.22
2022-09-22T23:53:38.544Z,8.25
2022-09-22T23:56:06.606Z,8.18
2022-09-22T23:58:34.195Z,8.19
